Time;durP1;ratioP1;P1;durP2;ratioP2;P2;SDS_P1;SDS_P2;PMS_P1;PMS_P2;Temp;Humidity;BMP_temperature;BMP_pressure;BME280_temperature;BME280_humidity;BME280_pressure;Samples;Min_cycle;Max_cycle;Signal;HPM_P1;HPM_P2
2023/01/03 00:01:41;;;;;;;11.25;4.60;;;4.60;99.90;;;;;;6316351;22;20019;-77
2023/01/03 00:04:08;;;;;;;10.80;5.43;;;4.20;99.90;;;;;;6288063;22;20011;-78
2023/01/03 00:06:37;;;;;;;8.77;4.80;;;4.60;99.90;;;;;;6315490;22;20472;-76
2023/01/03 00:09:08;;;;;;;10.95;4.93;;;4.60;99.90;;;;;;6315343;22;20048;-76
2023/01/03 00:14:24;;;;;;;8.25;4.88;;;4.30;99.90;;;;;;6315299;22;20060;-76
2023/01/03 00:16:52;;;;;;;13.02;5.25;;;4.10;99.90;;;;;;6263731;22;20013;-76
2023/01/03 00:19:18;;;;;;;14.45;5.25;;;4.00;99.90;;;;;;6287592;22;20021;-77
2023/01/03 00:21:44;;;;;;;10.73;4.78;;;4.30;99.90;;;;;;6289721;22;20011;-77
2023/01/03 00:24:10;;;;;;;6.10;4.30;;;3.90;99.90;;;;;;6290965;22;20052;-77
2023/01/03 00:26:37;;;;;;;10.82;4.05;;;4.30;99.90;;;;;;6315816;22;20321;-77
2023/01/03 00:29:03;;;;;;;6.82;4.38;;;3.90;99.90;;;;;;6313983;22;20017;-78
2023/01/03 00:31:28;;;;;;;13.20;4.05;;;4.30;99.90;;;;;;6289394;22;20046;-77
2023/01/03 00:33:54;;;;;;;10.38;4.00;;;4.80;99.90;;;;;;6238851;22;20015;-77
2023/01/03 00:36:20;;;;;;;6.55;3.90;;;4.10;99.90;;;;;;6288439;22;20006;-77
2023/01/03 00:38:46;;;;;;;10.02;4.30;;;4.40;99.90;;;;;;6264390;22;20032;-77
2023/01/03 00:41:14;;;;;;;6.35;3.78;;;4.10;99.90;;;;;;6288492;22;20019;-78
2023/01/03 00:43:42;;;;;;;10.13;4.18;;;4.10;99.90;;;;;;6314502;22;20010;-77
2023/01/03 00:46:09;;;;;;;8.48;4.55;;;4.00;99.90;;;;;;6288734;22;20093;-77
2023/01/03 00:48:36;;;;;;;10.60;3.72;;;4.00;99.90;;;;;;6315277;22;20018;-77
2023/01/03 00:51:22;;;;;;;10.63;3.45;;;4.10;99.90;;;;;;6315072;22;20011;-78
2023/01/03 00:53:50;;;;;;;6.07;3.30;;;3.90;99.90;;;;;;6315402;22;20017;-75
2023/01/03 00:56:19;;;;;;;5.82;3.55;;;4.20;99.90;;;;;;6314948;22;20021;-75
2023/01/03 00:58:45;;;;;;;6.45;3.65;;;4.00;99.90;;;;;;6315514;22;20014;-75
2023/01/03 01:01:12;;;;;;;10.48;3.58;;;3.90;99.90;;;;;;6313981;22;20251;-77
2023/01/03 01:03:40;;;;;;;5.28;3.78;;;4.50;99.90;;;;;;6288945;22;20029;-76
2023/01/03 01:06:20;;;;;;;7.63;3.92;;;4.20;99.90;;;;;;6288318;22;20027;-77
2023/01/03 01:08:47;;;;;;;7.45;3.42;;;4.20;99.90;;;;;;6316434;22;20029;-81
2023/01/03 01:11:13;;;;;;;7.13;3.00;;;4.30;99.90;;;;;;6288516;22;20019;-78
2023/01/03 01:13:40;;;;;;;7.15;3.00;;;4.40;99.90;;;;;;6314284;22;20014;-79
2023/01/03 01:16:09;;;;;;;5.15;2.53;;;4.30;99.90;;;;;;6287438;22;20014;-79
2023/01/03 01:18:36;;;;;;;8.63;3.10;;;5.30;99.90;;;;;;6288051;22;20044;-78
2023/01/03 01:21:07;;;;;;;6.05;2.92;;;5.10;99.90;;;;;;6315016;22;20049;-78
2023/01/03 01:23:35;;;;;;;8.10;2.88;;;4.40;99.90;;;;;;6315558;22;20244;-78
2023/01/03 01:26:02;;;;;;;4.68;2.60;;;4.60;99.90;;;;;;6289847;22;20011;-77
2023/01/03 01:28:28;;;;;;;12.57;3.40;;;4.40;99.90;;;;;;6286973;22;20019;-77
2023/01/03 01:30:57;;;;;;;5.75;3.03;;;4.40;99.90;;;;;;6287351;22;20066;-77
2023/01/03 01:33:23;;;;;;;7.15;2.70;;;4.70;99.90;;;;;;6315186;22;20130;-78
2023/01/03 01:35:49;;;;;;;6.75;2.90;;;4.40;99.90;;;;;;6316533;22;20080;-77
2023/01/03 01:38:14;;;;;;;4.97;2.70;;;4.70;99.90;;;;;;6288609;22;20457;-77
2023/01/03 01:40:40;;;;;;;5.20;2.58;;;4.60;99.90;;;;;;6288972;22;20011;-77
2023/01/03 01:46:17;;;;;;;7.68;2.60;;;4.80;99.90;;;;;;6315170;22;20049;-77
2023/01/03 01:48:42;;;;;;;7.78;2.92;;;4.60;99.90;;;;;;6289980;22;20010;-77
2023/01/03 01:51:09;;;;;;;5.45;3.22;;;4.80;99.90;;;;;;6288121;22;20066;-77
2023/01/03 01:53:37;;;;;;;6.75;3.00;;;4.50;99.90;;;;;;6315623;22;20514;-77
2023/01/03 01:56:27;;;;;;;7.45;3.30;;;4.70;99.90;;;;;;6264459;22;20074;-77
2023/01/03 01:58:54;;;;;;;5.95;3.22;;;4.50;99.90;;;;;;6315559;22;20056;-77
2023/01/03 02:01:21;;;;;;;6.53;4.05;;;4.40;99.90;;;;;;6262455;22;20093;-76
2023/01/03 02:03:55;;;;;;;6.40;3.92;;;4.50;99.90;;;;;;6315330;22;20038;-77
2023/01/03 02:06:22;;;;;;;8.55;4.00;;;4.40;99.90;;;;;;6314820;22;20027;-76
2023/01/03 02:08:48;;;;;;;9.15;4.22;;;4.30;99.90;;;;;;6314978;22;20023;-76
2023/01/03 02:11:31;;;;;;;8.23;3.95;;;4.30;99.90;;;;;;6314510;22;20072;-76
2023/01/03 02:14:35;;;;;;;6.15;3.72;;;4.70;99.90;;;;;;6315285;22;20026;-77
2023/01/03 02:17:10;;;;;;;9.52;3.88;;;4.60;99.90;;;;;;6167352;23;20226;-78
2023/01/03 02:20:03;;;;;;;7.25;4.30;;;4.40;99.90;;;;;;6167540;23;20008;-77
2023/01/03 02:22:50;;;;;;;9.80;4.13;;;4.40;99.90;;;;;;6255094;22;20015;-76
2023/01/03 02:25:19;;;;;;;5.90;4.13;;;4.70;99.90;;;;;;6316901;22;20052;-76
2023/01/03 02:28:26;;;;;;;12.68;4.50;;;4.50;99.90;;;;;;6317767;22;20007;-77
2023/01/03 02:31:12;;;;;;;9.68;4.30;;;4.60;99.90;;;;;;6250371;22;20246;-76
2023/01/03 02:33:53;;;;;;;;;;;4.70;99.90;;;;;;6317138;22;20040;-77
2023/01/03 02:36:48;;;;;;;8.43;4.07;;;4.70;99.90;;;;;;6292451;22;20526;-78
2023/01/03 02:39:35;;;;;;;9.40;4.57;;;4.30;99.90;;;;;;6270075;22;20015;-77
2023/01/03 02:45:34;;;;;;;13.18;5.20;;;4.70;99.90;;;;;;6318093;22;20010;-78
2023/01/03 02:48:17;;;;;;;7.70;4.18;;;4.30;99.90;;;;;;6292240;22;20007;-78
2023/01/03 02:50:49;;;;;;;9.13;4.35;;;4.50;99.90;;;;;;6292545;22;20018;-78
2023/01/03 02:53:25;;;;;;;11.55;4.30;;;4.40;99.90;;;;;;6317577;22;20009;-79
2023/01/03 02:55:53;;;;;;;8.38;3.80;;;4.40;99.90;;;;;;6291746;22;20014;-78
2023/01/03 02:58:24;;;;;;;7.88;3.72;;;4.40;99.90;;;;;;6266353;22;20232;-78
2023/01/03 03:00:54;;;;;;;6.70;3.53;;;5.60;99.90;;;;;;6317746;22;20013;-79
2023/01/03 03:03:26;;;;;;;8.25;3.67;;;4.60;99.90;;;;;;6318169;22;20048;-78
2023/01/03 03:05:55;;;;;;;5.63;3.70;;;4.40;99.90;;;;;;6319034;22;20018;-79
2023/01/03 03:08:20;;;;;;;9.18;3.83;;;4.60;99.90;;;;;;6318800;22;20052;-79
2023/01/03 03:13:31;;;;;;;7.05;3.17;;;4.30;99.90;;;;;;6294813;22;20049;-78
2023/01/03 03:25:15;;;;;;;7.07;3.80;;;3.90;99.90;;;;;;6314581;22;20021;-76
2023/01/03 03:30:31;;;;;;;7.18;3.53;;;4.80;99.90;;;;;;6315428;22;20030;-78
2023/01/03 03:33:05;;;;;;;7.57;4.15;;;3.70;99.90;;;;;;6318091;22;20080;-77
2023/01/03 03:35:38;;;;;;;5.20;3.08;;;5.20;99.90;;;;;;6289655;22;20422;-79
2023/01/03 03:38:10;;;;;;;6.10;3.70;;;3.70;99.90;;;;;;6316803;22;20013;-78
2023/01/03 03:46:32;;;;;;;6.70;3.47;;;5.10;99.90;;;;;;6317431;22;20033;-76
2023/01/03 03:51:59;;;;;;;8.43;3.88;;;3.80;99.90;;;;;;6318207;22;20038;-77
2023/01/03 03:54:26;;;;;;;8.52;3.72;;;3.40;99.90;;;;;;6291875;22;20015;-77
2023/01/03 03:57:00;;;;;;;7.65;4.60;;;3.50;99.90;;;;;;6290736;22;20006;-78
2023/01/03 03:59:28;;;;;;;8.27;4.40;;;4.30;99.90;;;;;;6291042;22;20006;-78
2023/01/03 04:01:57;;;;;;;12.85;4.72;;;4.90;99.90;;;;;;6317278;22;20064;-77
2023/01/03 04:04:29;;;;;;;9.20;4.30;;;4.00;99.90;;;;;;6316156;22;20450;-77
2023/01/03 04:06:55;;;;;;;8.77;4.45;;;5.20;99.90;;;;;;6289912;22;20229;-77
2023/01/03 04:09:21;;;;;;;9.77;4.20;;;3.30;99.90;;;;;;6266080;22;20014;-77
2023/01/03 04:11:47;;;;;;;10.02;4.30;;;4.30;99.90;;;;;;6291775;22;20358;-77
2023/01/03 04:14:21;;;;;;;10.85;5.03;;;4.60;99.90;;;;;;6290329;22;20015;-76
2023/01/03 04:17:43;;;;;;;9.25;5.18;;;3.30;99.90;;;;;;6341750;22;20022;-76
2023/01/03 04:24:56;;;;;;;;;;;;;;;;;;;;;
2023/01/03 04:28:57;;;;;;;14.35;5.63;;;3.70;99.90;;;;;;6097409;23;20037;-77
2023/01/03 04:35:42;;;;;;;;;;;;;;;;;;;;;
2023/01/03 04:38:58;;;;;;;12.75;7.45;;;4.70;99.90;;;;;;5962831;23;20022;-78
2023/01/03 04:41:34;;;;;;;;;;;;;;;;;;;;;
2023/01/03 04:44:27;;;;;;;19.23;8.80;;;3.60;99.90;;;;;;6050650;23;20022;-77
2023/01/03 04:47:31;;;;;;;21.90;9.65;;;4.00;99.90;;;;;;5954769;24;20075;-76
2023/01/03 04:54:21;;;;;;;16.77;9.82;;;5.50;99.90;;;;;;5931629;24;20076;-77
2023/01/03 04:57:34;;;;;;;24.33;10.35;;;3.80;99.90;;;;;;5881125;24;20013;-76
2023/01/03 05:00:53;;;;;;;16.38;9.70;;;2.40;99.90;;;;;;5901590;24;20009;-76
2023/01/03 05:07:38;;;;;;;20.83;11.40;;;3.10;99.90;;;;;;5952080;24;20023;-76
2023/01/03 05:10:19;;;;;;;20.27;10.93;;;4.30;99.90;;;;;;5979548;24;20039;-75
2023/01/03 05:13:08;;;;;;;22.52;10.77;;;6.00;99.90;;;;;;5992007;23;20030;-77
2023/01/03 05:15:46;;;;;;;20.23;10.68;;;3.80;99.90;;;;;;6129543;23;20021;-78
2023/01/03 05:18:34;;;;;;;20.77;10.93;;;3.70;99.90;;;;;;6128865;23;20382;-76
2023/01/03 05:35:37;;;;;;;23.98;12.35;;;3.50;99.90;;;;;;6153569;23;20013;-77
2023/01/03 05:38:32;;;;;;;;;;;;;;;;;;;;;
2023/01/03 05:42:00;;;;;;;20.05;11.43;;;3.50;99.90;;;;;;6279805;22;20019;-75
2023/01/03 05:45:34;;;;;;;;;;;;;;;;;;;;;
2023/01/03 05:48:34;;;;;;;;;;;;;;;;;;;;;
2023/01/03 05:51:24;;;;;;;18.60;10.90;;;4.00;99.90;;;;;;6301633;22;20015;-77
2023/01/03 05:54:10;;;;;;;19.60;11.52;;;2.40;99.90;;;;;;6258695;22;20230;-77
2023/01/03 05:56:51;;;;;;;20.00;12.00;;;4.00;99.90;;;;;;6283773;22;20011;-78
2023/01/03 06:03:33;;;;;;;;;;;;;;;;;;;;;
2023/01/03 06:11:05;;;;;;;22.05;12.82;;;2.70;99.90;;;;;;6039715;23;20049;-77
2023/01/03 06:13:31;;;;;;;25.65;13.23;;;4.00;99.90;;;;;;6065464;23;20477;-77
2023/01/03 06:19:49;;;;;;;31.15;14.35;;;4.20;99.90;;;;;;6100667;23;20058;-77
2023/01/03 06:22:23;;;;;;;23.92;13.10;;;4.20;99.90;;;;;;6113855;23;20337;-76
2023/01/03 06:27:58;;;;;;;22.50;13.23;;;5.20;99.90;;;;;;6205347;22;20085;-76
2023/01/03 06:30:30;;;;;;;25.10;13.32;;;3.80;99.90;;;;;;6284359;22;20288;-76
2023/01/03 06:32:55;;;;;;;27.40;13.70;;;4.00;99.90;;;;;;6210772;22;20007;-76
2023/01/03 06:36:04;;;;;;;;;;;;;;;;;;;;;
2023/01/03 06:53:15;;;;;;;33.33;16.42;;;3.30;99.90;;;;;;6054480;23;20023;-77
2023/01/03 06:56:26;;;;;;;31.65;16.42;;;4.20;99.90;;;;;;6108742;23;20138;-78
2023/01/03 06:58:55;;;;;;;34.35;16.00;;;2.30;99.90;;;;;;6138399;23;20016;-79
2023/01/03 07:05:35;;;;;;;;;;;;;;;;;;;;;
2023/01/03 07:08:21;;;;;;;32.60;17.25;;;4.10;99.90;;;;;;6061264;23;20022;-77
2023/01/03 07:11:22;;;;;;;31.23;18.48;;;4.40;99.90;;;;;;6219373;22;20081;-80
2023/01/03 07:13:59;;;;;;;34.17;18.08;;;3.80;99.90;;;;;;6318222;22;20074;-80
2023/01/03 07:17:34;;;;;;;32.58;17.52;;;5.70;99.90;;;;;;6290989;22;20041;-78
2023/01/03 07:20:15;;;;;;;33.72;17.88;;;4.80;99.90;;;;;;6216949;23;20187;-78
2023/01/03 07:22:50;;;;;;;31.42;16.77;;;3.20;99.90;;;;;;6166140;23;20013;-77
2023/01/03 07:25:16;;;;;;;36.72;18.75;;;3.90;99.90;;;;;;6247239;22;20070;-77
2023/01/03 07:31:42;;;;;;;31.98;17.45;;;3.20;99.90;;;;;;6304211;22;20039;-78
2023/01/03 07:37:35;;;;;;;36.97;18.13;;;3.20;99.90;;;;;;6217121;23;20070;-77
2023/01/03 07:40:10;;;;;;;34.08;17.73;;;3.60;99.90;;;;;;6192999;23;20013;-78
2023/01/03 07:45:49;;;;;;;;;;;;;;;;;;;;;
2023/01/03 07:52:29;;;;;;;31.58;17.33;;;3.30;99.90;;;;;;6169537;23;20035;-80
2023/01/03 07:54:59;;;;;;;34.03;17.98;;;4.80;99.90;;;;;;6168300;23;20023;-77
2023/01/03 08:04:38;;;;;;;33.72;17.17;;;3.30;99.90;;;;;;6192048;23;20299;-77
2023/01/03 08:07:10;;;;;;;31.52;17.40;;;;;;;;;;6168788;22;20083;-77
2023/01/03 08:15:14;;;;;;;35.55;18.27;;;3.20;99.90;;;;;;6294384;22;20026;-77
2023/01/03 08:17:43;;;;;;;27.48;16.80;;;3.30;99.90;;;;;;6289080;22;20019;-76
2023/01/03 08:20:08;;;;;;;33.08;16.70;;;3.30;99.90;;;;;;6266011;22;20014;-75
2023/01/03 08:22:54;;;;;;;30.20;16.52;;;3.40;99.90;;;;;;6315553;22;20242;-76
2023/01/03 08:25:20;;;;;;;30.10;16.38;;;3.50;99.90;;;;;;6287908;22;20015;-76
2023/01/03 08:27:59;;;;;;;;;;;;;;;;;;;;;
2023/01/03 08:34:35;;;;;;;34.10;16.58;;;3.50;99.90;;;;;;6313165;22;20019;-77
2023/01/03 08:37:34;;;;;;;28.48;16.35;;;3.80;99.90;;;;;;6276406;22;20070;-78
2023/01/03 08:55:29;;;;;;;30.75;16.40;;;2.90;99.90;;;;;;6062669;23;20101;-80
2023/01/03 09:19:06;;;;;;;26.90;14.68;;;3.80;99.90;;;;;;6094170;23;20037;-76
2023/01/03 09:26:33;;;;;;;31.60;18.45;;;4.20;99.90;;;;;;6106841;23;20048;-76
2023/01/03 09:29:01;;;;;;;31.45;19.08;;;3.60;99.90;;;;;;6111696;23;20110;-76
2023/01/03 09:31:33;;;;;;;29.65;16.83;;;6.00;99.90;;;;;;6173399;23;20016;-75
2023/01/03 09:34:08;;;;;;;26.85;16.65;;;4.80;99.90;;;;;;6177763;23;20075;-74
2023/01/03 09:36:37;;;;;;;25.75;15.82;;;4.70;99.90;;;;;;6176797;23;20023;-75
2023/01/03 09:39:08;;;;;;;23.33;13.93;;;4.30;99.90;;;;;;6177686;23;20046;-75
2023/01/03 09:41:34;;;;;;;20.17;12.15;;;3.50;99.90;;;;;;6200092;23;20016;-75
2023/01/03 09:44:03;;;;;;;22.60;14.20;;;3.40;99.90;;;;;;6225385;23;20063;-75
2023/01/03 09:46:34;;;;;;;17.42;11.90;;;3.00;99.90;;;;;;6200022;23;20226;-75
2023/01/03 09:49:05;;;;;;;18.70;11.13;;;3.10;99.90;;;;;;6225191;23;20043;-75
2023/01/03 10:04:08;;;;;;;21.17;14.55;;;2.80;99.90;;;;;;6255454;22;20024;-76
2023/01/03 10:06:39;;;;;;;32.50;16.27;;;2.60;99.90;;;;;;6134352;23;20024;-75
2023/01/03 10:48:37;;;;;;;;;;;;;;;;;;;;;
2023/01/03 11:00:32;;;;;;;;;;;;;;;;;;;;;
2023/01/03 11:43:41;;;;;;;67.40;28.90;;;6.90;99.90;;;;;;6128770;23;20053;-78
2023/01/03 11:54:16;;;;;;;;;;;;;;;;;;;;;
2023/01/03 12:41:15;;;;;;;55.75;25.45;;;6.80;99.90;;;;;;5503483;22;15099953;-78
2023/01/03 12:44:35;;;;;;;;;;;;;;;;;;;;;
2023/01/03 13:09:46;;;;;;;46.25;22.48;;;6.40;99.90;;;;;;6227154;23;20024;-76
2023/01/03 13:20:35;;;;;;;40.53;20.60;;;6.70;99.90;;;;;;6074964;23;20042;-77
2023/01/03 13:27:53;;;;;;;34.25;18.98;;;6.90;99.90;;;;;;6011755;23;20083;-79
2023/01/03 13:30:57;;;;;;;33.05;19.52;;;7.40;99.90;;;;;;6196480;23;20319;-78
2023/01/03 13:40:54;;;;;;;31.60;17.02;;;8.00;99.90;;;;;;6055696;23;20098;-77
2023/01/03 14:02:59;;;;;;;32.60;18.52;;;7.20;99.90;;;;;;5900128;24;20029;-77
2023/01/03 14:05:52;;;;;;;27.80;16.45;;;7.70;99.90;;;;;;5905137;23;20028;-77
2023/01/03 14:12:48;;;;;;;29.17;14.48;;;7.50;99.90;;;;;;6120464;23;20053;-79
2023/01/03 14:15:42;;;;;;;30.08;17.20;;;8.80;99.90;;;;;;6098908;23;20022;-78
2023/01/03 14:19:11;;;;;;;26.15;13.05;;;9.00;99.90;;;;;;6191781;23;20291;-79
2023/01/03 14:26:25;;;;;;;29.58;15.93;;;9.00;99.90;;;;;;5960630;24;20024;-77
2023/01/03 14:29:30;;;;;;;25.00;15.00;;;7.20;99.90;;;;;;5932147;24;20053;-77
2023/01/03 14:32:01;;;;;;;31.87;14.97;;;7.40;99.90;;;;;;5907604;24;20021;-78
2023/01/03 14:43:24;;;;;;;;;;;;;;;;;;;;;
2023/01/03 14:58:03;;;;;;;28.30;15.60;;;7.90;99.90;;;;;;5765946;24;20034;-78
2023/01/03 15:01:11;;;;;;;35.65;16.92;;;7.40;99.90;;;;;;5767148;24;20079;-79
2023/01/03 15:18:41;;;;;;;30.08;16.45;;;8.30;99.90;;;;;;5819127;24;20045;-75
2023/01/03 15:21:16;;;;;;;29.17;15.20;;;7.70;99.90;;;;;;5877525;24;20013;-76
2023/01/03 15:24:26;;;;;;;30.27;15.93;;;7.80;99.90;;;;;;5886820;23;20013;-76
2023/01/03 15:27:40;;;;;;;28.60;14.50;;;7.30;99.90;;;;;;6040449;23;20029;-76
2023/01/03 15:31:45;;;;;;;;;;;;;;;;;;;;;
2023/01/03 15:35:00;;;;;;;30.17;15.90;;;5.90;99.90;;;;;;6022925;23;20012;-77
2023/01/03 15:51:03;;;;;;;24.90;14.55;;;6.90;99.90;;;;;;5953079;24;20097;-77
2023/01/03 15:54:28;;;;;;;;;;;;;;;;;;;;;
2023/01/03 15:57:59;;;;;;;29.58;15.55;;;7.50;99.90;;;;;;5973176;24;20024;-77
2023/01/03 16:19:05;;;;;;;;;;;;;;;;;;;;;
2023/01/03 16:23:22;;;;;;;27.90;13.55;;;10.00;99.90;;;;;;5731207;25;20031;-76
2023/01/03 16:26:14;;;;;;;21.40;11.65;;;7.40;99.90;;;;;;5710750;25;20031;-77
2023/01/03 16:35:49;;;;;;;20.35;13.10;;;9.10;99.90;;;;;;5793193;24;20110;-78
2023/01/03 16:46:59;;;;;;;;;;;;;;;;;;;;;
2023/01/03 16:53:39;;;;;;;17.70;11.13;;;7.60;99.90;;;;;;4996369;28;20042;-76
2023/01/03 17:00:01;;;;;;;;;;;;;;;;;;;;;
2023/01/03 17:02:43;;;;;;;15.07;9.27;;;8.20;99.90;;;;;;5013665;28;20050;-76
2023/01/03 17:05:15;;;;;;;18.65;10.65;;;7.90;99.90;;;;;;4996008;28;20034;-77
2023/01/03 17:52:36;;;;;;;14.85;8.50;;;7.90;99.90;;;;;;6165244;22;1333647;-77
2023/01/03 17:55:27;;;;;;;12.40;6.10;;;7.50;99.90;;;;;;6195792;23;20017;-76
2023/01/03 17:58:23;;;;;;;19.13;8.98;;;7.80;99.90;;;;;;6052387;23;20064;-76
2023/01/03 18:00:48;;;;;;;9.93;7.90;;;7.80;99.90;;;;;;6110994;23;20071;-78
2023/01/03 18:03:47;;;;;;;14.27;9.07;;;7.80;99.90;;;;;;6062585;23;20013;-78
2023/01/03 18:06:21;;;;;;;11.88;8.35;;;7.30;99.90;;;;;;6079876;23;20085;-76
2023/01/03 18:08:47;;;;;;;11.93;6.97;;;7.50;99.90;;;;;;6087323;23;20056;-78
2023/01/03 18:11:31;;;;;;;14.50;7.93;;;6.50;99.90;;;;;;6086401;23;20317;-79
2023/01/03 18:18:28;;;;;;;14.15;6.85;;;7.50;99.90;;;;;;6103382;23;20578;-78
2023/01/03 18:25:29;;;;;;;14.60;8.32;;;7.60;99.90;;;;;;6032776;23;20047;-80
2023/01/03 18:28:36;;;;;;;9.50;5.80;;;8.90;99.90;;;;;;5972458;23;20020;-79
2023/01/03 18:31:02;;;;;;;10.05;6.82;;;7.90;99.90;;;;;;6023532;23;20243;-78
2023/01/03 18:33:42;;;;;;;13.75;7.80;;;7.50;99.90;;;;;;6106408;23;20227;-77
2023/01/03 18:39:53;;;;;;;10.05;7.18;;;6.20;99.90;;;;;;6018845;23;20016;-77
2023/01/03 18:43:35;;;;;;;12.00;7.32;;;7.60;99.90;;;;;;6072415;23;20080;-78
2023/01/03 18:47:04;;;;;;;13.65;7.10;;;7.80;99.90;;;;;;5876355;24;20013;-77
2023/01/03 18:49:36;;;;;;;12.43;7.05;;;7.90;99.90;;;;;;5901473;24;20335;-78
2023/01/03 19:16:42;;;;;;;11.65;7.15;;;7.10;99.90;;;;;;5820302;24;20021;-79
2023/01/03 19:20:01;;;;;;;7.53;4.82;;;7.60;99.90;;;;;;5799742;24;20046;-81
2023/01/03 19:37:33;;;;;;;8.73;5.18;;;7.50;99.90;;;;;;5896873;24;20040;-77
2023/01/03 19:40:55;;;;;;;7.07;5.43;;;6.40;99.90;;;;;;5880596;24;20088;-77
2023/01/03 19:55:38;;;;;;;13.23;6.13;;;7.70;99.90;;;;;;5988282;23;20026;-78
2023/01/03 20:11:28;;;;;;;7.50;4.75;;;7.10;99.90;;;;;;6097654;23;20037;-79
2023/01/03 20:14:57;;;;;;;10.82;5.28;;;7.10;99.90;;;;;;6010646;23;20028;-78
2023/01/03 20:17:25;;;;;;;9.35;5.30;;;6.20;99.90;;;;;;6010918;23;20168;-79
2023/01/03 20:23:17;;;;;;;11.80;5.55;;;7.10;99.90;;;;;;5987459;23;20015;-79
2023/01/03 20:25:43;;;;;;;8.95;5.55;;;7.90;99.90;;;;;;6041013;23;20149;-78
2023/01/03 20:28:27;;;;;;;8.77;4.03;;;8.00;99.90;;;;;;6114795;23;20044;-78
2023/01/03 20:30:55;;;;;;;10.90;4.32;;;7.80;99.90;;;;;;6167666;23;20016;-79
2023/01/03 20:37:01;;;;;;;8.70;4.88;;;7.80;99.90;;;;;;6071658;23;20153;-77
2023/01/03 20:55:18;;;;;;;;;;;;;;;;;;;;;
2023/01/03 20:59:03;;;;;;;14.95;5.55;;;6.80;99.90;;;;;;5921299;24;20475;-78
2023/01/03 21:02:27;;;;;;;7.03;4.18;;;8.20;99.90;;;;;;5917002;24;20028;-76
2023/01/03 21:05:46;;;;;;;12.48;4.30;;;10.00;99.90;;;;;;5920734;24;20048;-77
2023/01/03 21:14:48;;;;;;;12.35;5.10;;;7.30;99.90;;;;;;5793494;24;20027;-77
2023/01/03 21:17:26;;;;;;;7.15;4.07;;;7.90;99.90;;;;;;5794713;24;20038;-76
2023/01/03 21:19:52;;;;;;;11.48;4.43;;;8.00;99.90;;;;;;5911610;23;20257;-76
2023/01/03 21:22:19;;;;;;;7.97;4.75;;;8.20;99.90;;;;;;6092597;23;20009;-76
2023/01/03 21:33:42;;;;;;;;;;;;;;;;;;;;;
2023/01/03 22:14:28;;;;;;;8.95;3.97;;;8.10;99.90;;;;;;5919408;24;20021;-76
2023/01/03 22:22:06;;;;;;;;;;;;;;;;;;;;;
2023/01/03 22:29:19;;;;;;;;;;;;;;;;;;;;;
2023/01/03 22:36:09;;;;;;;5.80;2.83;;;9.60;99.90;;;;;;6089127;23;20024;-76
2023/01/03 22:38:48;;;;;;;3.38;2.28;;;8.10;99.90;;;;;;6181331;23;20016;-77
2023/01/03 22:41:59;;;;;;;8.95;2.78;;;8.10;99.90;;;;;;6201570;23;20023;-76
2023/01/03 22:45:20;;;;;;;;;;;;;;;;;;;;;
2023/01/03 22:48:13;;;;;;;3.83;2.47;;;8.10;99.90;;;;;;6226285;23;20012;-75
2023/01/03 22:58:04;;;;;;;7.32;3.03;;;8.20;99.90;;;;;;6104735;23;20013;-76
2023/01/03 23:07:47;;;;;;;5.60;2.22;;;6.90;99.90;;;;;;6014682;23;20023;-76
2023/01/03 23:18:06;;;;;;;5.05;2.65;;;8.50;99.90;;;;;;6094249;23;20212;-77
2023/01/03 23:21:08;;;;;;;6.07;2.80;;;8.90;99.90;;;;;;6076074;23;20028;-76
2023/01/03 23:28:36;;;;;;;5.90;2.38;;;9.10;99.90;;;;;;6158475;23;20013;-76
2023/01/03 23:31:09;;;;;;;6.60;2.92;;;7.50;99.90;;;;;;6130796;23;20021;-77
2023/01/03 23:33:35;;;;;;;10.15;2.70;;;8.40;99.90;;;;;;6133834;23;20125;-76
2023/01/03 23:36:31;;;;;;;5.90;2.33;;;8.30;99.90;;;;;;6193098;23;20203;-77
2023/01/03 23:39:54;;;;;;;8.98;3.13;;;8.20;99.90;;;;;;6221001;23;20020;-78
2023/01/03 23:49:35;;;;;;;4.57;2.22;;;8.20;99.90;;;;;;6006493;23;20018;-77
2023/01/03 23:56:33;;;;;;;5.70;2.72;;;7.60;99.90;;;;;;6063705;23;20046;-77
2023/01/03 23:58:59;;;;;;;4.65;2.95;;;8.30;99.90;;;;;;6032436;23;20022;-76
